createdAt,value
2023-03-03T00:00:45.330Z,55.47
2023-03-03T00:03:16.532Z,56.95
2023-03-03T00:05:43.415Z,59.13
2023-03-03T00:08:10.626Z,62.05
2023-03-03T00:10:37.742Z,52.80
2023-03-03T00:13:04.407Z,58.60
2023-03-03T00:15:31.585Z,54.97
2023-03-03T00:17:59.105Z,57.25
2023-03-03T00:20:40.191Z,57.08
2023-03-03T00:23:16.619Z,55.03
2023-03-03T00:25:45.851Z,54.72
2023-03-03T00:28:38.778Z,58.13
2023-03-03T00:31:16.590Z,59.05
2023-03-03T00:33:55.033Z,59.13
2023-03-03T00:36:38.821Z,57.47
2023-03-03T00:39:17.667Z,59.40
2023-03-03T00:41:45.478Z,58.38
2023-03-03T00:44:25.644Z,55.63
2023-03-03T00:46:54.039Z,50.20
2023-03-03T00:49:26.896Z,56.85
2023-03-03T00:51:54.341Z,61.83
2023-03-03T00:54:20.982Z,58.13
2023-03-03T00:56:47.555Z,54.78
2023-03-03T00:59:14.660Z,53.05
2023-03-03T01:01:41.348Z,51.17
2023-03-03T01:04:08.569Z,59.03
2023-03-03T01:06:35.288Z,73.00
2023-03-03T01:09:01.815Z,54.83
2023-03-03T01:11:29.196Z,49.60
2023-03-03T01:13:56.573Z,44.72
2023-03-03T01:16:23.262Z,48.65
2023-03-03T01:18:50.686Z,50.33
2023-03-03T01:21:17.322Z,49.38
2023-03-03T01:23:44.075Z,52.80
2023-03-03T01:26:10.698Z,45.60
2023-03-03T01:28:38.722Z,50.55
2023-03-03T01:31:06.559Z,53.60
2023-03-03T01:33:34.474Z,46.40
2023-03-03T01:36:01.251Z,42.90
2023-03-03T01:38:28.502Z,46.58
2023-03-03T01:40:56.810Z,53.03
2023-03-03T01:43:26.250Z,50.63
2023-03-03T01:45:53.811Z,46.83
2023-03-03T01:48:29.792Z,45.30
2023-03-03T01:51:02.120Z,49.50
2023-03-03T01:56:02.115Z,43.88
2023-03-03T01:58:34.814Z,42.70
2023-03-03T02:01:06.683Z,53.88
2023-03-03T02:06:11.091Z,61.40
2023-03-03T02:09:07.871Z,63.63
2023-03-03T02:11:37.609Z,57.85
2023-03-03T02:14:04.205Z,67.10
2023-03-03T02:16:30.972Z,63.60
2023-03-03T02:18:59.357Z,63.13
2023-03-03T02:21:29.282Z,69.78
2023-03-03T02:24:13.531Z,67.65
2023-03-03T02:26:41.840Z,59.00
2023-03-03T02:29:10.465Z,56.42
2023-03-03T02:31:38.839Z,51.28
2023-03-03T02:34:06.022Z,57.78
2023-03-03T02:36:36.136Z,65.53
2023-03-03T02:39:20.581Z,64.05
2023-03-03T02:42:03.704Z,61.88
2023-03-03T02:44:37.068Z,63.88
2023-03-03T02:47:03.809Z,71.65
2023-03-03T02:49:32.911Z,73.03
2023-03-03T02:52:01.295Z,68.93
2023-03-03T02:54:30.781Z,71.90
2023-03-03T02:56:59.209Z,68.82
2023-03-03T02:59:26.831Z,67.32
2023-03-03T03:01:55.528Z,63.65
2023-03-03T03:04:25.608Z,65.55
2023-03-03T03:06:54.097Z,59.45
2023-03-03T03:09:23.689Z,49.40
2023-03-03T03:11:52.315Z,43.15
2023-03-03T03:14:23.350Z,46.33
2023-03-03T03:16:50.594Z,48.10
2023-03-03T03:19:17.146Z,48.05
2023-03-03T03:21:44.875Z,42.38
2023-03-03T03:24:11.463Z,47.13
2023-03-03T03:26:42.187Z,44.65
2023-03-03T03:29:09.559Z,46.15
2023-03-03T03:31:36.460Z,46.25
2023-03-03T03:34:03.443Z,48.13
2023-03-03T03:36:30.813Z,51.25
2023-03-03T03:38:57.814Z,48.13
2023-03-03T03:41:24.885Z,56.03
2023-03-03T03:43:51.534Z,50.13
2023-03-03T03:46:18.109Z,52.33
2023-03-03T03:48:45.517Z,49.22
2023-03-03T03:51:13.737Z,44.08
2023-03-03T03:53:41.231Z,63.88
2023-03-03T03:56:08.125Z,90.53
2023-03-03T03:58:34.990Z,87.95
2023-03-03T04:01:06.838Z,74.88
2023-03-03T04:03:36.934Z,71.43
2023-03-03T04:06:07.527Z,68.38
2023-03-03T04:08:34.730Z,70.68
2023-03-03T04:11:01.842Z,68.88
2023-03-03T04:13:31.935Z,67.47
2023-03-03T04:15:59.680Z,67.28
2023-03-03T04:18:26.669Z,68.05
2023-03-03T04:20:54.653Z,63.83
2023-03-03T04:23:22.177Z,64.90
2023-03-03T04:25:49.832Z,64.82
2023-03-03T04:28:17.457Z,67.28
2023-03-03T04:30:45.079Z,59.83
2023-03-03T04:33:13.971Z,60.10
2023-03-03T04:35:41.196Z,59.03
2023-03-03T04:38:08.007Z,54.85
2023-03-03T04:40:35.826Z,60.20
2023-03-03T04:43:04.124Z,56.55
2023-03-03T04:45:30.935Z,58.65
2023-03-03T04:47:57.643Z,72.07
2023-03-03T04:50:24.168Z,57.67
2023-03-03T04:52:50.946Z,66.05
2023-03-03T04:55:17.569Z,67.55
2023-03-03T04:57:46.550Z,64.55
2023-03-03T05:00:16.135Z,50.28
2023-03-03T05:02:43.341Z,50.75
2023-03-03T05:05:10.640Z,53.63
2023-03-03T05:07:37.207Z,47.72
2023-03-03T05:10:06.211Z,44.50
2023-03-03T05:12:32.807Z,42.47
2023-03-03T05:14:59.314Z,44.05
2023-03-03T05:17:25.892Z,42.72
2023-03-03T05:19:52.399Z,43.38
2023-03-03T05:22:19.052Z,45.58
2023-03-03T05:24:49.206Z,49.33
2023-03-03T05:27:16.482Z,45.92
2023-03-03T05:29:43.031Z,54.97
2023-03-03T05:32:09.848Z,55.35
2023-03-03T05:34:36.666Z,54.47
2023-03-03T05:37:05.605Z,52.97
2023-03-03T05:39:33.452Z,58.55
2023-03-03T05:44:27.641Z,63.10
2023-03-03T05:46:54.305Z,60.25
2023-03-03T05:49:20.851Z,52.72
2023-03-03T05:51:47.687Z,60.65
2023-03-03T05:54:14.314Z,68.90
2023-03-03T05:56:40.977Z,70.25
2023-03-03T05:59:07.469Z,62.78
2023-03-03T06:01:34.170Z,68.65
2023-03-03T06:04:00.762Z,61.47
2023-03-03T06:06:28.248Z,63.70
2023-03-03T06:08:57.129Z,64.00
2023-03-03T06:11:26.149Z,73.57
2023-03-03T06:13:52.646Z,78.82
2023-03-03T06:16:19.403Z,82.28
2023-03-03T06:18:46.124Z,87.22
2023-03-03T06:21:12.737Z,95.22
2023-03-03T06:23:39.426Z,88.70
2023-03-03T06:26:05.960Z,148.82
2023-03-03T06:28:32.624Z,96.57
2023-03-03T06:30:59.275Z,93.90
2023-03-03T06:33:25.958Z,95.55
2023-03-03T06:35:54.550Z,87.95
2023-03-03T06:38:21.246Z,76.40
2023-03-03T06:40:51.192Z,80.18
2023-03-03T06:43:17.709Z,105.70
2023-03-03T06:45:46.094Z,144.70
2023-03-03T06:48:12.746Z,104.78
2023-03-03T06:50:39.450Z,90.00
2023-03-03T06:53:17.236Z,88.45
2023-03-03T06:55:45.020Z,93.47
2023-03-03T06:58:14.789Z,91.40
2023-03-03T07:00:46.732Z,90.40
2023-03-03T07:03:21.698Z,90.95
2023-03-03T07:05:48.370Z,116.97
2023-03-03T07:08:20.944Z,105.13
2023-03-03T07:10:48.871Z,103.07
2023-03-03T07:13:26.856Z,103.85
2023-03-03T07:15:55.766Z,99.25
2023-03-03T07:18:37.607Z,89.07
2023-03-03T07:21:16.942Z,90.78
2023-03-03T07:23:45.213Z,87.88
2023-03-03T07:26:14.298Z,84.88
2023-03-03T07:28:43.387Z,87.60
2023-03-03T07:31:40.129Z,83.28
2023-03-03T07:34:35.527Z,94.90
2023-03-03T07:37:10.391Z,92.63
2023-03-03T07:39:40.518Z,106.60
2023-03-03T07:42:30.008Z,99.47
2023-03-03T07:45:35.363Z,96.30
2023-03-03T07:48:26.157Z,94.00
2023-03-03T07:50:52.894Z,96.13
2023-03-03T07:53:28.994Z,92.50
2023-03-03T07:55:56.125Z,80.70
2023-03-03T07:58:37.232Z,86.65
2023-03-03T08:01:44.748Z,79.07
2023-03-03T08:04:17.520Z,78.30
2023-03-03T08:06:50.161Z,70.72
2023-03-03T08:09:19.528Z,80.22
2023-03-03T08:11:58.511Z,83.03
2023-03-03T08:14:29.498Z,89.43
2023-03-03T08:17:00.408Z,80.18
2023-03-03T08:19:29.834Z,90.95
2023-03-03T08:22:09.440Z,86.13
2023-03-03T08:24:38.415Z,81.03
2023-03-03T08:27:05.121Z,72.32
2023-03-03T08:29:31.767Z,65.47
2023-03-03T08:31:58.477Z,69.35
2023-03-03T08:34:25.272Z,63.72
2023-03-03T08:36:52.123Z,66.55
2023-03-03T08:39:18.742Z,63.63
2023-03-03T08:41:48.531Z,64.15
2023-03-03T08:44:15.163Z,61.80
2023-03-03T08:46:41.750Z,67.57
2023-03-03T08:49:08.344Z,66.28
2023-03-03T08:51:34.980Z,70.78
2023-03-03T08:54:01.715Z,68.60
2023-03-03T08:56:28.323Z,66.43
2023-03-03T08:59:02.126Z,69.70
2023-03-03T09:01:30.260Z,64.32
2023-03-03T09:03:56.857Z,67.00
2023-03-03T09:08:51.187Z,68.40
2023-03-03T09:11:26.291Z,63.97
2023-03-03T09:14:10.370Z,65.25
2023-03-03T09:16:56.783Z,67.30
2023-03-03T09:19:27.540Z,65.03
2023-03-03T09:21:57.697Z,61.28
2023-03-03T09:24:31.822Z,65.28
2023-03-03T09:26:59.600Z,62.10
2023-03-03T09:29:29.476Z,65.10
2023-03-03T09:31:59.023Z,62.75
2023-03-03T09:34:42.384Z,60.30
2023-03-03T09:37:23.535Z,61.80
2023-03-03T09:39:52.551Z,57.15
2023-03-03T09:42:26.197Z,55.33
2023-03-03T09:44:52.826Z,58.72
2023-03-03T09:47:22.175Z,56.10
2023-03-03T09:50:03.893Z,57.83
2023-03-03T09:52:40.503Z,57.67
2023-03-03T09:55:31.716Z,64.40
2023-03-03T09:58:27.555Z,59.30
2023-03-03T10:01:15.893Z,64.25
2023-03-03T10:03:48.334Z,70.20
2023-03-03T10:06:25.526Z,64.15
2023-03-03T10:09:03.258Z,71.03
2023-03-03T10:12:00.770Z,67.40
2023-03-03T10:14:49.206Z,69.45
2023-03-03T10:17:32.836Z,66.68
2023-03-03T10:20:15.456Z,70.35
2023-03-03T10:22:57.143Z,74.18
2023-03-03T10:25:32.188Z,72.37
2023-03-03T10:28:34.847Z,73.53
2023-03-03T10:31:39.619Z,71.40
2023-03-03T10:34:29.122Z,77.95
2023-03-03T10:37:06.562Z,78.85
2023-03-03T10:40:06.724Z,76.43
2023-03-03T10:42:36.028Z,74.28
2023-03-03T10:45:17.515Z,81.03
2023-03-03T10:48:07.102Z,79.90
2023-03-03T10:50:42.742Z,74.72
2023-03-03T10:53:24.196Z,73.00
2023-03-03T10:56:51.739Z,76.35
2023-03-03T10:59:34.107Z,65.50
2023-03-03T11:02:22.897Z,69.53
2023-03-03T11:05:03.133Z,64.18
2023-03-03T11:07:42.405Z,64.80
2023-03-03T11:10:29.279Z,66.63
2023-03-03T11:13:25.221Z,61.72
2023-03-03T11:16:26.818Z,54.72
2023-03-03T11:19:38.262Z,53.83
2023-03-03T11:22:28.405Z,56.92
2023-03-03T11:24:57.617Z,53.22
2023-03-03T11:27:35.314Z,53.70
2023-03-03T11:30:27.155Z,55.88
2023-03-03T11:33:11.666Z,49.87
2023-03-03T11:35:46.389Z,47.58
2023-03-03T11:38:31.852Z,44.10
2023-03-03T11:41:14.793Z,47.92
2023-03-03T11:43:52.802Z,51.00
2023-03-03T11:46:27.339Z,36.75
2023-03-03T11:49:49.356Z,38.83
2023-03-03T11:52:28.745Z,30.85
2023-03-03T11:55:01.158Z,34.67
2023-03-03T11:57:54.418Z,36.60
2023-03-03T12:00:31.397Z,37.22
2023-03-03T12:03:21.402Z,36.10
2023-03-03T12:06:19.103Z,31.98
2023-03-03T12:08:58.695Z,31.95
2023-03-03T12:11:39.404Z,35.60
2023-03-03T12:14:12.119Z,32.58
2023-03-03T12:16:56.667Z,34.30
2023-03-03T12:19:47.532Z,36.75
2023-03-03T12:22:30.948Z,33.05
2023-03-03T12:25:19.953Z,31.50
2023-03-03T12:27:52.343Z,31.75
2023-03-03T12:30:45.322Z,36.15
2023-03-03T12:33:14.550Z,34.83
2023-03-03T12:35:56.001Z,31.13
2023-03-03T12:38:52.011Z,30.07
2023-03-03T12:41:43.702Z,29.05
2023-03-03T12:44:30.608Z,26.77
2023-03-03T12:47:06.427Z,29.13
2023-03-03T12:50:06.612Z,31.08
2023-03-03T12:52:39.861Z,27.33
2023-03-03T12:55:17.454Z,33.13
2023-03-03T12:58:14.427Z,30.70
2023-03-03T13:00:53.125Z,28.80
2023-03-03T13:03:54.956Z,32.53
2023-03-03T13:09:02.717Z,29.95
2023-03-03T13:11:46.108Z,27.77
2023-03-03T13:14:43.308Z,26.77
2023-03-03T13:17:23.099Z,27.40
2023-03-03T13:19:58.158Z,27.45
2023-03-03T13:22:47.237Z,26.67
2023-03-03T13:25:39.235Z,27.60
2023-03-03T13:28:26.075Z,28.08
2023-03-03T13:31:01.327Z,26.15
2023-03-03T13:33:33.614Z,32.10
2023-03-03T13:38:41.840Z,28.13
2023-03-03T13:41:34.871Z,27.08
2023-03-03T13:44:09.153Z,27.60
2023-03-03T13:47:15.630Z,27.33
2023-03-03T13:50:07.457Z,30.13
2023-03-03T13:52:49.975Z,32.97
2023-03-03T13:55:36.086Z,26.30
2023-03-03T13:58:17.341Z,29.52
2023-03-03T14:01:14.081Z,36.75
2023-03-03T14:04:06.236Z,40.78
2023-03-03T14:06:33.167Z,27.70
2023-03-03T14:09:45.970Z,26.00
2023-03-03T14:12:30.281Z,19.83
2023-03-03T14:15:11.599Z,26.48
2023-03-03T14:17:41.032Z,28.80
2023-03-03T14:20:30.645Z,27.13
2023-03-03T14:22:59.482Z,30.35
2023-03-03T14:25:27.147Z,28.90
2023-03-03T14:27:59.579Z,32.72
2023-03-03T14:30:36.602Z,30.30
2023-03-03T14:33:06.030Z,27.67
2023-03-03T14:35:43.734Z,27.88
2023-03-03T14:38:19.805Z,28.33
2023-03-03T14:40:48.219Z,35.90
2023-03-03T14:43:33.640Z,30.05
2023-03-03T14:46:27.215Z,30.48
2023-03-03T14:48:56.405Z,38.80
2023-03-03T14:51:41.394Z,28.40
2023-03-03T14:54:20.454Z,26.95
2023-03-03T14:57:03.610Z,28.67
2023-03-03T14:59:30.783Z,27.02
2023-03-03T15:02:03.142Z,30.23
2023-03-03T15:04:31.007Z,29.33
2023-03-03T15:06:58.872Z,27.25
2023-03-03T15:09:35.708Z,32.80
2023-03-03T15:12:21.939Z,31.30
2023-03-03T15:15:19.515Z,29.63
2023-03-03T15:18:02.716Z,32.65
2023-03-03T15:20:41.098Z,43.10
2023-03-03T15:23:42.658Z,36.75
2023-03-03T15:26:15.903Z,33.97
2023-03-03T15:28:54.475Z,33.85
2023-03-03T15:31:39.489Z,34.22
2023-03-03T15:34:20.786Z,36.22
2023-03-03T15:37:23.665Z,29.67
2023-03-03T15:42:35.810Z,29.35
2023-03-03T15:45:05.470Z,31.65
2023-03-03T15:48:06.872Z,31.40
2023-03-03T15:51:04.535Z,29.52
2023-03-03T15:53:56.916Z,31.75
2023-03-03T15:56:42.644Z,37.03
2023-03-03T15:59:14.838Z,36.95
2023-03-03T16:04:19.861Z,31.65
2023-03-03T16:07:25.438Z,32.22
2023-03-03T16:10:34.337Z,35.13
2023-03-03T16:13:22.043Z,38.30
2023-03-03T16:15:53.495Z,39.55
2023-03-03T16:18:39.078Z,35.25
2023-03-03T16:21:11.394Z,36.13
2023-03-03T16:26:42.774Z,29.95
2023-03-03T16:29:44.916Z,27.80
2023-03-03T16:32:47.837Z,26.98
2023-03-03T16:35:19.062Z,27.55
2023-03-03T16:38:02.578Z,28.58
2023-03-03T16:40:40.247Z,25.75
2023-03-03T16:43:31.022Z,27.25
2023-03-03T16:46:03.643Z,41.90
2023-03-03T16:48:36.399Z,29.35
2023-03-03T16:51:34.509Z,27.85
2023-03-03T16:56:32.093Z,30.45
2023-03-03T16:59:11.521Z,37.88
2023-03-03T17:02:01.562Z,31.73
2023-03-03T17:04:37.195Z,33.85
2023-03-03T17:07:45.596Z,36.60
2023-03-03T17:10:32.392Z,35.45
2023-03-03T17:13:17.570Z,33.92
2023-03-03T17:15:53.410Z,38.05
2023-03-03T17:18:38.909Z,34.15
2023-03-03T17:21:32.599Z,33.03
2023-03-03T17:24:13.190Z,33.33
2023-03-03T17:26:53.272Z,33.00
2023-03-03T17:29:29.862Z,34.63
2023-03-03T17:32:23.335Z,30.83
2023-03-03T17:35:20.924Z,33.70
2023-03-03T17:37:59.122Z,29.27
2023-03-03T17:40:50.214Z,30.10
2023-03-03T17:44:01.006Z,31.05
2023-03-03T17:46:36.922Z,30.90
2023-03-03T17:49:03.629Z,30.95
2023-03-03T17:51:42.347Z,31.35
2023-03-03T17:54:31.161Z,31.95
2023-03-03T17:57:20.901Z,33.35
2023-03-03T18:00:12.304Z,29.95
2023-03-03T18:02:54.337Z,31.00
2023-03-03T18:05:43.875Z,28.92
2023-03-03T18:08:14.038Z,33.00
2023-03-03T18:11:04.960Z,29.65
2023-03-03T18:13:47.227Z,34.33
2023-03-03T18:16:41.264Z,28.52
2023-03-03T18:19:51.573Z,33.83
2023-03-03T18:22:41.271Z,32.25
2023-03-03T18:25:22.468Z,30.90
2023-03-03T18:28:01.052Z,47.65
2023-03-03T18:30:32.146Z,36.55
2023-03-03T18:33:01.942Z,36.88
2023-03-03T18:35:39.793Z,39.72
2023-03-03T18:38:15.682Z,35.45
2023-03-03T18:40:50.998Z,33.40
2023-03-03T18:43:47.966Z,33.13
2023-03-03T18:46:34.914Z,30.75
2023-03-03T18:49:12.835Z,32.00
2023-03-03T18:51:39.455Z,35.42
2023-03-03T18:54:20.557Z,29.92
2023-03-03T18:57:11.951Z,28.13
2023-03-03T18:59:40.634Z,32.00
2023-03-03T19:02:13.504Z,37.28
2023-03-03T19:05:18.443Z,51.58
2023-03-03T19:08:22.071Z,44.83
2023-03-03T19:10:58.322Z,33.33
2023-03-03T19:13:34.402Z,41.50
2023-03-03T19:16:05.534Z,36.22
2023-03-03T19:18:44.644Z,35.23
2023-03-03T19:21:12.286Z,35.00
2023-03-03T19:23:52.538Z,37.20
2023-03-03T19:26:25.011Z,49.15
2023-03-03T19:29:05.305Z,40.50
2023-03-03T19:31:55.940Z,37.72
2023-03-03T19:34:39.512Z,51.33
2023-03-03T19:37:09.412Z,30.80
2023-03-03T19:40:04.559Z,29.23
2023-03-03T19:42:31.257Z,29.17
2023-03-03T19:45:20.670Z,44.80
2023-03-03T19:48:04.718Z,52.53
2023-03-03T19:51:25.691Z,38.92
2023-03-03T19:54:29.953Z,32.30
2023-03-03T19:57:11.562Z,37.70
2023-03-03T19:59:59.208Z,38.22
2023-03-03T20:03:12.456Z,26.13
2023-03-03T20:06:02.489Z,29.02
2023-03-03T20:09:10.839Z,35.28
2023-03-03T20:12:04.066Z,31.90
2023-03-03T20:14:57.858Z,30.48
2023-03-03T20:17:35.290Z,33.90
2023-03-03T20:20:04.930Z,39.40
2023-03-03T20:22:43.888Z,33.92
2023-03-03T20:25:16.971Z,36.25
2023-03-03T20:28:24.856Z,28.67
2023-03-03T20:31:20.108Z,35.67
2023-03-03T20:33:55.822Z,30.48
2023-03-03T20:36:40.106Z,34.15
2023-03-03T20:39:15.242Z,33.25
2023-03-03T20:41:49.019Z,35.45
2023-03-03T20:44:40.226Z,31.85
2023-03-03T20:47:20.713Z,39.60
2023-03-03T20:49:57.974Z,36.45
2023-03-03T20:52:53.012Z,33.50
2023-03-03T20:55:31.371Z,34.97
2023-03-03T20:58:15.415Z,32.92
2023-03-03T21:01:12.939Z,31.25
2023-03-03T21:03:46.049Z,32.05
2023-03-03T21:06:23.702Z,32.08
2023-03-03T21:08:56.304Z,29.80
2023-03-03T21:11:31.914Z,36.03
2023-03-03T21:13:59.947Z,33.80
2023-03-03T21:16:28.628Z,33.30
2023-03-03T21:19:04.345Z,32.03
2023-03-03T21:21:37.448Z,32.88
2023-03-03T21:24:04.956Z,35.22
2023-03-03T21:26:44.796Z,33.08
2023-03-03T21:29:31.018Z,37.08
2023-03-03T21:32:00.706Z,42.47
2023-03-03T21:34:31.571Z,35.75
2023-03-03T21:37:00.202Z,35.00
2023-03-03T21:39:37.300Z,37.95
2023-03-03T21:42:04.041Z,38.38
2023-03-03T21:44:44.659Z,41.28
2023-03-03T21:47:14.771Z,43.35
2023-03-03T21:49:43.217Z,38.83
2023-03-03T21:52:10.891Z,40.15
2023-03-03T21:54:37.972Z,39.33
2023-03-03T21:57:04.716Z,40.05
2023-03-03T21:59:31.405Z,37.40
2023-03-03T22:01:57.995Z,39.28
2023-03-03T22:04:24.568Z,42.53
2023-03-03T22:06:52.777Z,42.47
2023-03-03T22:09:20.165Z,39.10
2023-03-03T22:11:47.035Z,41.10
2023-03-03T22:14:13.836Z,38.45
2023-03-03T22:16:40.753Z,41.42
2023-03-03T22:19:09.199Z,42.75
2023-03-03T22:21:37.287Z,42.85
2023-03-03T22:24:07.224Z,45.33
2023-03-03T22:26:35.367Z,39.63
2023-03-03T22:29:02.530Z,40.83
2023-03-03T22:31:29.174Z,42.15
2023-03-03T22:33:55.774Z,36.72
2023-03-03T22:36:22.834Z,53.28
2023-03-03T22:38:49.524Z,50.85
2023-03-03T22:41:16.337Z,46.88
2023-03-03T22:43:43.498Z,42.53
2023-03-03T22:46:10.644Z,44.60
2023-03-03T22:48:38.221Z,47.33
2023-03-03T22:51:06.001Z,46.95
2023-03-03T22:53:32.870Z,52.75
2023-03-03T22:55:59.619Z,56.22
2023-03-03T22:58:26.256Z,54.75
2023-03-03T23:00:53.959Z,45.97
2023-03-03T23:03:21.085Z,53.40
2023-03-03T23:05:51.290Z,57.78
2023-03-03T23:08:19.300Z,53.22
2023-03-03T23:10:46.409Z,50.17
2023-03-03T23:13:13.092Z,45.03
2023-03-03T23:15:39.918Z,49.45
2023-03-03T23:18:06.583Z,44.08
2023-03-03T23:20:33.620Z,42.83
2023-03-03T23:23:00.190Z,46.85
2023-03-03T23:25:28.576Z,43.33
2023-03-03T23:27:55.864Z,44.25
2023-03-03T23:30:23.405Z,41.08
2023-03-03T23:32:51.107Z,39.40
2023-03-03T23:35:18.150Z,40.65
2023-03-03T23:37:45.909Z,41.83
2023-03-03T23:40:14.604Z,36.90
2023-03-03T23:42:41.258Z,40.05
2023-03-03T23:45:09.267Z,40.67
2023-03-03T23:47:36.181Z,39.13
2023-03-03T23:50:02.994Z,40.83
2023-03-03T23:52:29.570Z,39.90
2023-03-03T23:54:56.171Z,37.60
2023-03-03T23:57:22.768Z,52.55
2023-03-03T23:59:49.775Z,39.70
